sensor_id;sensor_type;location;lat;lon;timestamp;temperature;humidity
38458;DHT22;24239;48.058;10.486;2023-08-24T00:00:27;20.10;99.90
38458;DHT22;24239;48.058;10.486;2023-08-24T00:03:14;20.00;99.90
38458;DHT22;24239;48.058;10.486;2023-08-24T00:06:00;20.00;99.90
38458;DHT22;24239;48.058;10.486;2023-08-24T00:08:46;20.00;99.90
38458;DHT22;24239;48.058;10.486;2023-08-24T00:11:34;20.00;99.90
38458;DHT22;24239;48.058;10.486;2023-08-24T00:14:20;19.90;99.90
38458;DHT22;24239;48.058;10.486;2023-08-24T00:17:06;19.90;99.90
38458;DHT22;24239;48.058;10.486;2023-08-24T00:19:52;19.80;99.90
38458;DHT22;24239;48.058;10.486;2023-08-24T00:22:39;19.70;99.90
38458;DHT22;24239;48.058;10.486;2023-08-24T00:25:26;19.70;99.90
38458;DHT22;24239;48.058;10.486;2023-08-24T00:28:12;19.70;99.90
38458;DHT22;24239;48.058;10.486;2023-08-24T00:30:58;19.70;99.90
38458;DHT22;24239;48.058;10.486;2023-08-24T00:33:44;19.70;99.90
38458;DHT22;24239;48.058;10.486;2023-08-24T00:36:31;19.70;99.90
38458;DHT22;24239;48.058;10.486;2023-08-24T00:39:17;19.70;99.90
38458;DHT22;24239;48.058;10.486;2023-08-24T00:42:04;19.60;99.90
38458;DHT22;24239;48.058;10.486;2023-08-24T00:44:51;19.60;99.90
38458;DHT22;24239;48.058;10.486;2023-08-24T00:47:42;19.50;99.90
38458;DHT22;24239;48.058;10.486;2023-08-24T00:50:30;19.60;99.90
38458;DHT22;24239;48.058;10.486;2023-08-24T00:53:17;19.60;99.90
38458;DHT22;24239;48.058;10.486;2023-08-24T00:56:04;19.50;99.90
38458;DHT22;24239;48.058;10.486;2023-08-24T00:58:52;19.50;99.90
38458;DHT22;24239;48.058;10.486;2023-08-24T01:01:39;19.50;99.90
38458;DHT22;24239;48.058;10.486;2023-08-24T01:04:27;19.50;99.90
38458;DHT22;24239;48.058;10.486;2023-08-24T01:07:14;19.40;99.90
38458;DHT22;24239;48.058;10.486;2023-08-24T01:10:01;19.40;99.90
38458;DHT22;24239;48.058;10.486;2023-08-24T01:15:48;19.30;99.90
38458;DHT22;24239;48.058;10.486;2023-08-24T01:18:38;19.20;99.90
38458;DHT22;24239;48.058;10.486;2023-08-24T01:21:28;19.20;99.90
38458;DHT22;24239;48.058;10.486;2023-08-24T01:24:27;19.20;99.90
38458;DHT22;24239;48.058;10.486;2023-08-24T01:27:18;19.20;99.90
38458;DHT22;24239;48.058;10.486;2023-08-24T01:30:05;19.10;99.90
38458;DHT22;24239;48.058;10.486;2023-08-24T01:32:52;19.10;99.90
38458;DHT22;24239;48.058;10.486;2023-08-24T01:35:38;19.10;99.90
38458;DHT22;24239;48.058;10.486;2023-08-24T01:38:24;19.10;99.90
38458;DHT22;24239;48.058;10.486;2023-08-24T01:41:19;19.10;99.90
38458;DHT22;24239;48.058;10.486;2023-08-24T01:44:14;19.10;99.90
38458;DHT22;24239;48.058;10.486;2023-08-24T01:47:01;19.00;99.90
38458;DHT22;24239;48.058;10.486;2023-08-24T01:49:52;19.00;99.90
38458;DHT22;24239;48.058;10.486;2023-08-24T01:52:40;19.00;99.90
38458;DHT22;24239;48.058;10.486;2023-08-24T01:55:27;19.00;99.90
38458;DHT22;24239;48.058;10.486;2023-08-24T01:58:15;19.00;99.90
38458;DHT22;24239;48.058;10.486;2023-08-24T02:01:01;18.90;99.90
38458;DHT22;24239;48.058;10.486;2023-08-24T02:03:47;18.90;99.90
38458;DHT22;24239;48.058;10.486;2023-08-24T02:06:33;18.90;99.90
38458;DHT22;24239;48.058;10.486;2023-08-24T02:09:20;18.80;99.90
38458;DHT22;24239;48.058;10.486;2023-08-24T02:12:06;18.80;99.90
38458;DHT22;24239;48.058;10.486;2023-08-24T02:14:52;18.70;99.90
38458;DHT22;24239;48.058;10.486;2023-08-24T02:17:38;18.80;99.90
38458;DHT22;24239;48.058;10.486;2023-08-24T02:20:24;18.70;99.90
38458;DHT22;24239;48.058;10.486;2023-08-24T02:23:11;18.60;99.90
38458;DHT22;24239;48.058;10.486;2023-08-24T02:25:57;18.60;99.90
38458;DHT22;24239;48.058;10.486;2023-08-24T02:28:43;18.60;99.90
38458;DHT22;24239;48.058;10.486;2023-08-24T02:31:29;18.50;99.90
38458;DHT22;24239;48.058;10.486;2023-08-24T02:34:15;18.50;99.90
38458;DHT22;24239;48.058;10.486;2023-08-24T02:37:03;18.50;99.90
38458;DHT22;24239;48.058;10.486;2023-08-24T02:39:50;18.50;99.90
38458;DHT22;24239;48.058;10.486;2023-08-24T02:42:40;18.40;99.90
38458;DHT22;24239;48.058;10.486;2023-08-24T02:45:29;18.40;99.90
38458;DHT22;24239;48.058;10.486;2023-08-24T02:48:18;18.40;99.90
38458;DHT22;24239;48.058;10.486;2023-08-24T02:51:05;18.40;99.90
38458;DHT22;24239;48.058;10.486;2023-08-24T02:53:53;18.40;99.90
38458;DHT22;24239;48.058;10.486;2023-08-24T02:56:39;18.40;99.90
38458;DHT22;24239;48.058;10.486;2023-08-24T02:59:27;18.40;99.90
38458;DHT22;24239;48.058;10.486;2023-08-24T03:02:13;18.40;99.90
38458;DHT22;24239;48.058;10.486;2023-08-24T03:04:59;18.30;99.90
38458;DHT22;24239;48.058;10.486;2023-08-24T03:07:45;18.30;99.90
38458;DHT22;24239;48.058;10.486;2023-08-24T03:10:34;18.30;99.90
38458;DHT22;24239;48.058;10.486;2023-08-24T03:13:21;18.30;99.90
38458;DHT22;24239;48.058;10.486;2023-08-24T03:16:08;18.30;99.90
38458;DHT22;24239;48.058;10.486;2023-08-24T03:18:54;18.20;99.90
38458;DHT22;24239;48.058;10.486;2023-08-24T03:21:41;18.20;99.90
38458;DHT22;24239;48.058;10.486;2023-08-24T03:24:27;18.20;99.90
38458;DHT22;24239;48.058;10.486;2023-08-24T03:27:13;18.20;99.90
38458;DHT22;24239;48.058;10.486;2023-08-24T03:29:59;18.10;99.90
38458;DHT22;24239;48.058;10.486;2023-08-24T03:32:45;18.10;99.90
38458;DHT22;24239;48.058;10.486;2023-08-24T03:35:31;18.10;99.90
38458;DHT22;24239;48.058;10.486;2023-08-24T03:38:17;18.10;99.90
38458;DHT22;24239;48.058;10.486;2023-08-24T03:41:05;18.10;99.90
38458;DHT22;24239;48.058;10.486;2023-08-24T03:43:54;18.00;99.90
38458;DHT22;24239;48.058;10.486;2023-08-24T03:46:39;18.10;99.90
38458;DHT22;24239;48.058;10.486;2023-08-24T03:49:27;18.00;99.90
38458;DHT22;24239;48.058;10.486;2023-08-24T03:52:13;18.00;99.90
38458;DHT22;24239;48.058;10.486;2023-08-24T03:54:59;18.00;99.90
38458;DHT22;24239;48.058;10.486;2023-08-24T03:57:48;18.10;99.90
38458;DHT22;24239;48.058;10.486;2023-08-24T04:00:37;18.10;99.90
38458;DHT22;24239;48.058;10.486;2023-08-24T04:03:23;18.00;99.90
38458;DHT22;24239;48.058;10.486;2023-08-24T04:06:09;17.90;99.90
38458;DHT22;24239;48.058;10.486;2023-08-24T04:08:57;17.90;99.90
38458;DHT22;24239;48.058;10.486;2023-08-24T04:11:46;17.80;99.90
38458;DHT22;24239;48.058;10.486;2023-08-24T04:14:32;17.70;99.90
38458;DHT22;24239;48.058;10.486;2023-08-24T04:17:18;17.70;99.90
38458;DHT22;24239;48.058;10.486;2023-08-24T04:20:04;17.70;99.90
38458;DHT22;24239;48.058;10.486;2023-08-24T04:22:54;17.60;99.90
38458;DHT22;24239;48.058;10.486;2023-08-24T04:25:43;17.60;99.90
38458;DHT22;24239;48.058;10.486;2023-08-24T04:28:29;17.60;99.90
38458;DHT22;24239;48.058;10.486;2023-08-24T04:31:15;17.50;99.90
38458;DHT22;24239;48.058;10.486;2023-08-24T04:34:03;17.50;99.90
38458;DHT22;24239;48.058;10.486;2023-08-24T04:36:51;17.50;99.90
38458;DHT22;24239;48.058;10.486;2023-08-24T04:39:37;17.60;99.90
38458;DHT22;24239;48.058;10.486;2023-08-24T04:42:23;17.60;99.90
38458;DHT22;24239;48.058;10.486;2023-08-24T04:45:10;17.60;99.90
38458;DHT22;24239;48.058;10.486;2023-08-24T04:47:57;17.60;99.90
38458;DHT22;24239;48.058;10.486;2023-08-24T04:50:49;17.60;99.90
38458;DHT22;24239;48.058;10.486;2023-08-24T04:53:39;17.60;99.90
38458;DHT22;24239;48.058;10.486;2023-08-24T04:56:28;17.60;99.90
38458;DHT22;24239;48.058;10.486;2023-08-24T04:59:15;17.70;99.90
38458;DHT22;24239;48.058;10.486;2023-08-24T05:02:05;17.70;99.90
38458;DHT22;24239;48.058;10.486;2023-08-24T05:04:51;17.70;99.90
38458;DHT22;24239;48.058;10.486;2023-08-24T05:07:38;17.80;99.90
38458;DHT22;24239;48.058;10.486;2023-08-24T05:10:25;17.90;99.90
38458;DHT22;24239;48.058;10.486;2023-08-24T05:13:11;18.00;99.90
38458;DHT22;24239;48.058;10.486;2023-08-24T05:15:58;18.10;99.90
38458;DHT22;24239;48.058;10.486;2023-08-24T05:18:45;18.20;99.90
38458;DHT22;24239;48.058;10.486;2023-08-24T05:21:33;18.20;99.90
38458;DHT22;24239;48.058;10.486;2023-08-24T05:24:19;18.40;99.90
38458;DHT22;24239;48.058;10.486;2023-08-24T05:27:05;18.40;99.90
38458;DHT22;24239;48.058;10.486;2023-08-24T05:29:53;18.60;99.90
38458;DHT22;24239;48.058;10.486;2023-08-24T05:32:39;18.70;99.90
38458;DHT22;24239;48.058;10.486;2023-08-24T05:35:25;18.90;99.90
38458;DHT22;24239;48.058;10.486;2023-08-24T05:38:14;19.00;99.90
38458;DHT22;24239;48.058;10.486;2023-08-24T05:41:00;19.10;99.90
38458;DHT22;24239;48.058;10.486;2023-08-24T05:43:46;19.20;99.90
38458;DHT22;24239;48.058;10.486;2023-08-24T05:46:34;19.30;99.90
38458;DHT22;24239;48.058;10.486;2023-08-24T05:49:20;19.60;99.90
38458;DHT22;24239;48.058;10.486;2023-08-24T05:52:08;20.10;99.90
38458;DHT22;24239;48.058;10.486;2023-08-24T05:54:55;20.40;99.90
38458;DHT22;24239;48.058;10.486;2023-08-24T05:57:41;20.60;99.90
38458;DHT22;24239;48.058;10.486;2023-08-24T06:00:27;20.80;99.90
38458;DHT22;24239;48.058;10.486;2023-08-24T06:03:13;21.00;99.90
38458;DHT22;24239;48.058;10.486;2023-08-24T06:06:03;21.00;99.90
38458;DHT22;24239;48.058;10.486;2023-08-24T06:08:50;21.10;99.90
38458;DHT22;24239;48.058;10.486;2023-08-24T06:11:36;21.20;99.90
38458;DHT22;24239;48.058;10.486;2023-08-24T06:14:22;21.20;99.90
38458;DHT22;24239;48.058;10.486;2023-08-24T06:17:08;21.20;99.90
38458;DHT22;24239;48.058;10.486;2023-08-24T06:19:55;21.10;99.90
38458;DHT22;24239;48.058;10.486;2023-08-24T06:22:43;21.20;99.90
38458;DHT22;24239;48.058;10.486;2023-08-24T06:25:29;21.30;99.90
38458;DHT22;24239;48.058;10.486;2023-08-24T06:28:15;21.40;99.90
38458;DHT22;24239;48.058;10.486;2023-08-24T06:31:01;21.60;99.90
38458;DHT22;24239;48.058;10.486;2023-08-24T06:33:48;21.60;99.90
38458;DHT22;24239;48.058;10.486;2023-08-24T06:36:34;21.80;99.90
38458;DHT22;24239;48.058;10.486;2023-08-24T06:39:23;21.90;99.90
38458;DHT22;24239;48.058;10.486;2023-08-24T06:42:12;21.90;99.90
38458;DHT22;24239;48.058;10.486;2023-08-24T06:45:03;22.00;99.90
38458;DHT22;24239;48.058;10.486;2023-08-24T06:47:50;22.00;99.90
38458;DHT22;24239;48.058;10.486;2023-08-24T06:50:38;22.10;99.90
38458;DHT22;24239;48.058;10.486;2023-08-24T06:53:27;22.20;99.90
38458;DHT22;24239;48.058;10.486;2023-08-24T06:56:13;22.20;99.90
38458;DHT22;24239;48.058;10.486;2023-08-24T06:59:00;22.30;99.90
38458;DHT22;24239;48.058;10.486;2023-08-24T07:01:47;22.40;99.90
38458;DHT22;24239;48.058;10.486;2023-08-24T07:04:36;22.50;99.90
38458;DHT22;24239;48.058;10.486;2023-08-24T07:07:27;22.60;99.90
38458;DHT22;24239;48.058;10.486;2023-08-24T07:10:13;22.70;99.90
38458;DHT22;24239;48.058;10.486;2023-08-24T07:12:59;22.90;99.90
38458;DHT22;24239;48.058;10.486;2023-08-24T07:15:45;23.00;99.90
38458;DHT22;24239;48.058;10.486;2023-08-24T07:18:32;23.20;99.90
38458;DHT22;24239;48.058;10.486;2023-08-24T07:21:20;23.30;99.90
38458;DHT22;24239;48.058;10.486;2023-08-24T07:24:09;23.40;99.90
38458;DHT22;24239;48.058;10.486;2023-08-24T07:26:57;23.60;99.90
38458;DHT22;24239;48.058;10.486;2023-08-24T07:29:47;23.80;99.90
38458;DHT22;24239;48.058;10.486;2023-08-24T07:32:37;23.80;99.90
38458;DHT22;24239;48.058;10.486;2023-08-24T07:35:24;24.10;99.90
38458;DHT22;24239;48.058;10.486;2023-08-24T07:38:11;24.10;99.90
38458;DHT22;24239;48.058;10.486;2023-08-24T07:40:59;24.30;99.90
38458;DHT22;24239;48.058;10.486;2023-08-24T07:43:45;24.50;99.90
38458;DHT22;24239;48.058;10.486;2023-08-24T07:46:31;24.80;99.90
38458;DHT22;24239;48.058;10.486;2023-08-24T07:49:17;25.00;99.90
38458;DHT22;24239;48.058;10.486;2023-08-24T07:52:04;25.30;99.90
38458;DHT22;24239;48.058;10.486;2023-08-24T07:54:50;25.50;99.90
38458;DHT22;24239;48.058;10.486;2023-08-24T07:57:37;25.60;99.90
38458;DHT22;24239;48.058;10.486;2023-08-24T08:00:23;25.80;99.90
38458;DHT22;24239;48.058;10.486;2023-08-24T08:03:12;25.80;99.90
38458;DHT22;24239;48.058;10.486;2023-08-24T08:06:00;25.90;99.90
38458;DHT22;24239;48.058;10.486;2023-08-24T08:08:48;25.90;99.90
38458;DHT22;24239;48.058;10.486;2023-08-24T08:11:37;26.10;99.90
38458;DHT22;24239;48.058;10.486;2023-08-24T08:14:26;26.20;99.90
38458;DHT22;24239;48.058;10.486;2023-08-24T08:17:14;26.40;99.90
38458;DHT22;24239;48.058;10.486;2023-08-24T08:20:00;26.50;99.90
38458;DHT22;24239;48.058;10.486;2023-08-24T08:22:49;26.60;99.90
38458;DHT22;24239;48.058;10.486;2023-08-24T08:25:38;26.60;99.90
38458;DHT22;24239;48.058;10.486;2023-08-24T08:28:25;26.80;99.90
38458;DHT22;24239;48.058;10.486;2023-08-24T08:31:14;26.80;99.90
38458;DHT22;24239;48.058;10.486;2023-08-24T08:34:02;26.80;99.90
38458;DHT22;24239;48.058;10.486;2023-08-24T08:36:51;26.70;99.90
38458;DHT22;24239;48.058;10.486;2023-08-24T08:39:39;26.70;99.90
38458;DHT22;24239;48.058;10.486;2023-08-24T08:42:30;26.70;99.90
38458;DHT22;24239;48.058;10.486;2023-08-24T08:45:20;26.70;99.90
38458;DHT22;24239;48.058;10.486;2023-08-24T08:48:13;26.90;99.90
38458;DHT22;24239;48.058;10.486;2023-08-24T08:51:00;27.00;99.90
38458;DHT22;24239;48.058;10.486;2023-08-24T08:53:49;27.00;99.90
38458;DHT22;24239;48.058;10.486;2023-08-24T08:56:35;27.10;99.90
38458;DHT22;24239;48.058;10.486;2023-08-24T08:59:22;27.10;99.90
38458;DHT22;24239;48.058;10.486;2023-08-24T09:02:13;27.20;99.90
38458;DHT22;24239;48.058;10.486;2023-08-24T09:05:01;27.40;99.90
38458;DHT22;24239;48.058;10.486;2023-08-24T09:07:50;27.50;99.90
38458;DHT22;24239;48.058;10.486;2023-08-24T09:10:36;27.70;99.90
38458;DHT22;24239;48.058;10.486;2023-08-24T09:13:27;27.80;99.90
38458;DHT22;24239;48.058;10.486;2023-08-24T09:16:14;27.90;99.90
38458;DHT22;24239;48.058;10.486;2023-08-24T09:19:05;28.00;99.90
38458;DHT22;24239;48.058;10.486;2023-08-24T09:21:59;28.00;99.90
38458;DHT22;24239;48.058;10.486;2023-08-24T09:24:48;28.10;99.90
38458;DHT22;24239;48.058;10.486;2023-08-24T09:27:38;28.10;99.90
38458;DHT22;24239;48.058;10.486;2023-08-24T09:30:32;28.10;99.90
38458;DHT22;24239;48.058;10.486;2023-08-24T09:33:18;28.20;99.90
38458;DHT22;24239;48.058;10.486;2023-08-24T09:36:06;28.30;99.90
38458;DHT22;24239;48.058;10.486;2023-08-24T09:38:56;28.50;99.90
38458;DHT22;24239;48.058;10.486;2023-08-24T09:41:46;28.60;99.90
38458;DHT22;24239;48.058;10.486;2023-08-24T09:44:33;28.80;99.90
38458;DHT22;24239;48.058;10.486;2023-08-24T09:47:19;28.90;99.90
38458;DHT22;24239;48.058;10.486;2023-08-24T09:50:05;29.00;99.90
38458;DHT22;24239;48.058;10.486;2023-08-24T09:52:57;29.10;99.90
38458;DHT22;24239;48.058;10.486;2023-08-24T09:55:55;29.10;99.90
38458;DHT22;24239;48.058;10.486;2023-08-24T09:58:47;29.20;99.90
38458;DHT22;24239;48.058;10.486;2023-08-24T10:01:34;29.30;99.90
38458;DHT22;24239;48.058;10.486;2023-08-24T10:04:23;29.30;99.90
38458;DHT22;24239;48.058;10.486;2023-08-24T10:07:11;29.40;99.90
38458;DHT22;24239;48.058;10.486;2023-08-24T10:10:04;29.50;99.90
38458;DHT22;24239;48.058;10.486;2023-08-24T10:12:58;29.50;99.90
38458;DHT22;24239;48.058;10.486;2023-08-24T10:15:46;29.60;99.90
38458;DHT22;24239;48.058;10.486;2023-08-24T10:18:33;29.60;99.90
38458;DHT22;24239;48.058;10.486;2023-08-24T10:21:19;29.70;99.90
38458;DHT22;24239;48.058;10.486;2023-08-24T10:24:09;29.60;99.90
38458;DHT22;24239;48.058;10.486;2023-08-24T10:26:58;29.70;99.90
38458;DHT22;24239;48.058;10.486;2023-08-24T10:29:48;29.70;99.90
38458;DHT22;24239;48.058;10.486;2023-08-24T10:32:37;29.80;99.90
38458;DHT22;24239;48.058;10.486;2023-08-24T10:35:24;29.90;99.90
38458;DHT22;24239;48.058;10.486;2023-08-24T10:38:28;30.00;99.90
38458;DHT22;24239;48.058;10.486;2023-08-24T10:41:15;29.90;99.80
38458;DHT22;24239;48.058;10.486;2023-08-24T10:44:05;30.00;99.90
38458;DHT22;24239;48.058;10.486;2023-08-24T10:50:04;30.10;99.80
38458;DHT22;24239;48.058;10.486;2023-08-24T10:52:51;30.10;99.00
38458;DHT22;24239;48.058;10.486;2023-08-24T10:55:37;30.10;98.80
38458;DHT22;24239;48.058;10.486;2023-08-24T10:58:24;30.20;99.90
38458;DHT22;24239;48.058;10.486;2023-08-24T11:01:20;30.30;99.90
38458;DHT22;24239;48.058;10.486;2023-08-24T11:04:10;30.30;99.40
38458;DHT22;24239;48.058;10.486;2023-08-24T11:06:58;30.40;99.20
38458;DHT22;24239;48.058;10.486;2023-08-24T11:09:46;30.30;99.10
38458;DHT22;24239;48.058;10.486;2023-08-24T11:15:50;30.50;99.10
38458;DHT22;24239;48.058;10.486;2023-08-24T11:18:42;30.50;99.60
38458;DHT22;24239;48.058;10.486;2023-08-24T11:21:29;30.60;98.00
38458;DHT22;24239;48.058;10.486;2023-08-24T11:24:16;30.70;96.50
38458;DHT22;24239;48.058;10.486;2023-08-24T11:27:04;30.80;96.90
38458;DHT22;24239;48.058;10.486;2023-08-24T11:29:59;30.80;97.10
38458;DHT22;24239;48.058;10.486;2023-08-24T11:32:52;30.90;96.30
38458;DHT22;24239;48.058;10.486;2023-08-24T11:35:43;31.00;97.60
38458;DHT22;24239;48.058;10.486;2023-08-24T11:41:24;31.20;98.20
38458;DHT22;24239;48.058;10.486;2023-08-24T11:44:13;31.10;96.40
38458;DHT22;24239;48.058;10.486;2023-08-24T11:46:59;31.20;94.90
38458;DHT22;24239;48.058;10.486;2023-08-24T11:49:45;31.30;95.10
38458;DHT22;24239;48.058;10.486;2023-08-24T11:52:31;31.50;95.00
38458;DHT22;24239;48.058;10.486;2023-08-24T11:55:24;31.60;94.20
38458;DHT22;24239;48.058;10.486;2023-08-24T11:58:17;31.80;93.80
38458;DHT22;24239;48.058;10.486;2023-08-24T12:01:05;31.80;93.90
38458;DHT22;24239;48.058;10.486;2023-08-24T12:03:52;31.90;94.20
38458;DHT22;24239;48.058;10.486;2023-08-24T12:06:38;31.90;94.40
38458;DHT22;24239;48.058;10.486;2023-08-24T12:09:29;32.00;93.40
38458;DHT22;24239;48.058;10.486;2023-08-24T12:12:17;32.00;93.20
38458;DHT22;24239;48.058;10.486;2023-08-24T12:15:04;32.00;94.10
38458;DHT22;24239;48.058;10.486;2023-08-24T12:17:51;32.20;95.20
38458;DHT22;24239;48.058;10.486;2023-08-24T12:20:37;32.20;95.30
38458;DHT22;24239;48.058;10.486;2023-08-24T12:23:27;32.30;94.70
38458;DHT22;24239;48.058;10.486;2023-08-24T12:26:19;32.30;94.40
38458;DHT22;24239;48.058;10.486;2023-08-24T12:29:07;32.50;94.30
38458;DHT22;24239;48.058;10.486;2023-08-24T12:31:58;32.50;95.10
38458;DHT22;24239;48.058;10.486;2023-08-24T12:34:44;32.50;94.60
38458;DHT22;24239;48.058;10.486;2023-08-24T12:37:30;32.40;93.60
38458;DHT22;24239;48.058;10.486;2023-08-24T12:40:16;32.40;94.70
38458;DHT22;24239;48.058;10.486;2023-08-24T12:43:02;32.50;94.50
38458;DHT22;24239;48.058;10.486;2023-08-24T12:45:52;32.60;93.70
38458;DHT22;24239;48.058;10.486;2023-08-24T12:48:40;32.60;93.90
38458;DHT22;24239;48.058;10.486;2023-08-24T12:51:29;32.60;94.80
38458;DHT22;24239;48.058;10.486;2023-08-24T12:54:17;32.60;92.20
38458;DHT22;24239;48.058;10.486;2023-08-24T12:57:03;32.70;92.70
38458;DHT22;24239;48.058;10.486;2023-08-24T12:59:49;32.70;92.80
38458;DHT22;24239;48.058;10.486;2023-08-24T13:02:38;32.80;92.70
38458;DHT22;24239;48.058;10.486;2023-08-24T13:05:24;32.90;92.00
38458;DHT22;24239;48.058;10.486;2023-08-24T13:08:10;32.90;91.60
38458;DHT22;24239;48.058;10.486;2023-08-24T13:10:57;33.00;91.20
38458;DHT22;24239;48.058;10.486;2023-08-24T13:13:44;33.00;90.00
38458;DHT22;24239;48.058;10.486;2023-08-24T13:16:32;33.00;90.30
38458;DHT22;24239;48.058;10.486;2023-08-24T13:19:18;33.00;89.10
38458;DHT22;24239;48.058;10.486;2023-08-24T13:22:04;32.90;91.10
38458;DHT22;24239;48.058;10.486;2023-08-24T13:24:50;33.00;89.00
38458;DHT22;24239;48.058;10.486;2023-08-24T13:27:36;33.00;89.20
38458;DHT22;24239;48.058;10.486;2023-08-24T13:30:22;33.00;90.00
38458;DHT22;24239;48.058;10.486;2023-08-24T13:33:10;33.10;90.40
38458;DHT22;24239;48.058;10.486;2023-08-24T13:35:58;33.20;90.90
38458;DHT22;24239;48.058;10.486;2023-08-24T13:38:44;33.30;91.10
38458;DHT22;24239;48.058;10.486;2023-08-24T13:41:31;33.40;90.30
38458;DHT22;24239;48.058;10.486;2023-08-24T13:44:17;33.30;90.40
38458;DHT22;24239;48.058;10.486;2023-08-24T13:47:03;33.40;90.20
38458;DHT22;24239;48.058;10.486;2023-08-24T13:49:49;33.40;90.70
38458;DHT22;24239;48.058;10.486;2023-08-24T13:52:35;33.40;90.90
38458;DHT22;24239;48.058;10.486;2023-08-24T13:55:22;33.50;89.50
38458;DHT22;24239;48.058;10.486;2023-08-24T13:58:08;33.60;90.50
38458;DHT22;24239;48.058;10.486;2023-08-24T14:00:57;33.70;87.80
38458;DHT22;24239;48.058;10.486;2023-08-24T14:03:43;33.80;85.20
38458;DHT22;24239;48.058;10.486;2023-08-24T14:06:33;33.80;86.00
38458;DHT22;24239;48.058;10.486;2023-08-24T14:09:22;33.80;84.80
38458;DHT22;24239;48.058;10.486;2023-08-24T14:12:10;33.70;85.60
38458;DHT22;24239;48.058;10.486;2023-08-24T14:14:56;33.70;84.50
38458;DHT22;24239;48.058;10.486;2023-08-24T14:17:42;33.70;85.00
38458;DHT22;24239;48.058;10.486;2023-08-24T14:20:27;33.70;87.60
38458;DHT22;24239;48.058;10.486;2023-08-24T14:23:13;33.50;84.10
38458;DHT22;24239;48.058;10.486;2023-08-24T14:26:00;33.50;84.90
38458;DHT22;24239;48.058;10.486;2023-08-24T14:28:57;33.50;84.10
38458;DHT22;24239;48.058;10.486;2023-08-24T14:31:44;33.50;88.60
38458;DHT22;24239;48.058;10.486;2023-08-24T14:34:32;33.50;84.40
38458;DHT22;24239;48.058;10.486;2023-08-24T14:37:18;33.60;83.40
38458;DHT22;24239;48.058;10.486;2023-08-24T14:40:05;33.50;85.50
38458;DHT22;24239;48.058;10.486;2023-08-24T14:42:52;33.50;86.30
38458;DHT22;24239;48.058;10.486;2023-08-24T14:45:39;33.50;85.50
38458;DHT22;24239;48.058;10.486;2023-08-24T14:48:25;33.50;85.70
38458;DHT22;24239;48.058;10.486;2023-08-24T14:51:11;33.50;86.80
38458;DHT22;24239;48.058;10.486;2023-08-24T14:53:57;33.60;85.50
38458;DHT22;24239;48.058;10.486;2023-08-24T14:56:45;33.60;84.70
38458;DHT22;24239;48.058;10.486;2023-08-24T14:59:31;33.60;83.30
38458;DHT22;24239;48.058;10.486;2023-08-24T15:02:17;33.50;82.40
38458;DHT22;24239;48.058;10.486;2023-08-24T15:05:05;33.50;84.40
38458;DHT22;24239;48.058;10.486;2023-08-24T15:07:52;33.60;84.10
38458;DHT22;24239;48.058;10.486;2023-08-24T15:10:38;33.70;83.70
38458;DHT22;24239;48.058;10.486;2023-08-24T15:13:25;33.70;82.60
38458;DHT22;24239;48.058;10.486;2023-08-24T15:16:11;33.70;83.90
38458;DHT22;24239;48.058;10.486;2023-08-24T15:18:57;33.80;83.00
38458;DHT22;24239;48.058;10.486;2023-08-24T15:21:44;33.90;85.90
38458;DHT22;24239;48.058;10.486;2023-08-24T15:24:33;33.80;83.40
38458;DHT22;24239;48.058;10.486;2023-08-24T15:27:24;34.00;84.60
38458;DHT22;24239;48.058;10.486;2023-08-24T15:30:13;34.10;83.00
38458;DHT22;24239;48.058;10.486;2023-08-24T15:32:59;34.10;82.50
38458;DHT22;24239;48.058;10.486;2023-08-24T15:35:47;34.30;82.30
38458;DHT22;24239;48.058;10.486;2023-08-24T15:38:33;34.30;83.40
38458;DHT22;24239;48.058;10.486;2023-08-24T15:41:19;34.30;81.50
38458;DHT22;24239;48.058;10.486;2023-08-24T15:44:05;34.20;82.50
38458;DHT22;24239;48.058;10.486;2023-08-24T15:46:51;34.10;80.40
38458;DHT22;24239;48.058;10.486;2023-08-24T15:49:40;34.00;82.60
38458;DHT22;24239;48.058;10.486;2023-08-24T15:52:26;33.90;83.70
38458;DHT22;24239;48.058;10.486;2023-08-24T15:55:13;34.00;83.00
38458;DHT22;24239;48.058;10.486;2023-08-24T15:58:00;34.10;82.70
38458;DHT22;24239;48.058;10.486;2023-08-24T16:00:51;34.40;83.00
38458;DHT22;24239;48.058;10.486;2023-08-24T16:03:39;34.60;83.20
38458;DHT22;24239;48.058;10.486;2023-08-24T16:06:25;35.20;82.90
38458;DHT22;24239;48.058;10.486;2023-08-24T16:09:12;36.10;81.60
38458;DHT22;24239;48.058;10.486;2023-08-24T16:11:58;37.00;81.30
38458;DHT22;24239;48.058;10.486;2023-08-24T16:14:44;37.80;81.40
38458;DHT22;24239;48.058;10.486;2023-08-24T16:17:30;37.90;79.10
38458;DHT22;24239;48.058;10.486;2023-08-24T16:20:16;38.30;79.00
38458;DHT22;24239;48.058;10.486;2023-08-24T16:23:02;38.70;79.30
38458;DHT22;24239;48.058;10.486;2023-08-24T16:25:50;38.70;80.20
38458;DHT22;24239;48.058;10.486;2023-08-24T16:28:36;38.40;79.10
38458;DHT22;24239;48.058;10.486;2023-08-24T16:31:22;37.70;78.40
38458;DHT22;24239;48.058;10.486;2023-08-24T16:34:08;36.40;79.60
38458;DHT22;24239;48.058;10.486;2023-08-24T16:36:54;35.50;82.50
38458;DHT22;24239;48.058;10.486;2023-08-24T16:39:40;34.60;84.10
38458;DHT22;24239;48.058;10.486;2023-08-24T16:42:26;33.70;85.40
38458;DHT22;24239;48.058;10.486;2023-08-24T16:45:13;33.00;86.70
38458;DHT22;24239;48.058;10.486;2023-08-24T16:48:01;32.40;88.60
38458;DHT22;24239;48.058;10.486;2023-08-24T16:50:52;31.90;90.20
38458;DHT22;24239;48.058;10.486;2023-08-24T16:53:40;31.40;90.90
38458;DHT22;24239;48.058;10.486;2023-08-24T16:56:26;30.90;91.40
38458;DHT22;24239;48.058;10.486;2023-08-24T16:59:12;30.50;92.10
38458;DHT22;24239;48.058;10.486;2023-08-24T17:02:00;30.00;92.70
38458;DHT22;24239;48.058;10.486;2023-08-24T17:04:49;29.70;93.00
38458;DHT22;24239;48.058;10.486;2023-08-24T17:07:39;29.40;94.00
38458;DHT22;24239;48.058;10.486;2023-08-24T17:10:25;29.20;94.20
38458;DHT22;24239;48.058;10.486;2023-08-24T17:13:14;29.00;95.00
38458;DHT22;24239;48.058;10.486;2023-08-24T17:16:00;28.80;95.00
38458;DHT22;24239;48.058;10.486;2023-08-24T17:18:48;28.70;94.90
38458;DHT22;24239;48.058;10.486;2023-08-24T17:21:34;28.60;95.00
38458;DHT22;24239;48.058;10.486;2023-08-24T17:24:21;28.50;95.20
38458;DHT22;24239;48.058;10.486;2023-08-24T17:27:08;28.40;95.50
38458;DHT22;24239;48.058;10.486;2023-08-24T17:29:54;28.30;95.40
38458;DHT22;24239;48.058;10.486;2023-08-24T17:32:40;28.20;95.90